sensor_id;sensor_type;location;lat;lon;timestamp;P1;durP1;ratioP1;P2;durP2;ratioP2
36353;SDS011;22383;51.114;13.666;2023-04-06T00:02:02;8.57;;;4.38;;
36353;SDS011;22383;51.114;13.666;2023-04-06T00:04:29;8.68;;;3.58;;
36353;SDS011;22383;51.114;13.666;2023-04-06T00:06:57;6.82;;;3.88;;
36353;SDS011;22383;51.114;13.666;2023-04-06T00:09:24;6.43;;;3.50;;
36353;SDS011;22383;51.114;13.666;2023-04-06T00:11:51;6.35;;;3.60;;
36353;SDS011;22383;51.114;13.666;2023-04-06T00:14:18;7.45;;;3.30;;
36353;SDS011;22383;51.114;13.666;2023-04-06T00:16:46;11.20;;;4.50;;
36353;SDS011;22383;51.114;13.666;2023-04-06T00:19:13;9.40;;;3.90;;
36353;SDS011;22383;51.114;13.666;2023-04-06T00:21:41;5.00;;;3.63;;
36353;SDS011;22383;51.114;13.666;2023-04-06T00:24:08;6.28;;;3.47;;
36353;SDS011;22383;51.114;13.666;2023-04-06T00:26:35;8.00;;;4.20;;
36353;SDS011;22383;51.114;13.666;2023-04-06T00:29:06;6.03;;;3.50;;
36353;SDS011;22383;51.114;13.666;2023-04-06T00:31:37;6.28;;;3.53;;
36353;SDS011;22383;51.114;13.666;2023-04-06T00:34:05;7.97;;;4.18;;
36353;SDS011;22383;51.114;13.666;2023-04-06T00:36:35;6.75;;;3.67;;
36353;SDS011;22383;51.114;13.666;2023-04-06T00:39:05;8.63;;;3.92;;
36353;SDS011;22383;51.114;13.666;2023-04-06T00:41:33;13.15;;;3.83;;
36353;SDS011;22383;51.114;13.666;2023-04-06T00:44:00;7.30;;;3.88;;
36353;SDS011;22383;51.114;13.666;2023-04-06T00:46:27;8.55;;;3.65;;
36353;SDS011;22383;51.114;13.666;2023-04-06T00:48:56;12.63;;;3.92;;
36353;SDS011;22383;51.114;13.666;2023-04-06T00:51:24;8.18;;;4.22;;
36353;SDS011;22383;51.114;13.666;2023-04-06T00:53:52;11.25;;;4.20;;
36353;SDS011;22383;51.114;13.666;2023-04-06T00:56:19;5.30;;;3.42;;
36353;SDS011;22383;51.114;13.666;2023-04-06T00:58:50;7.45;;;3.35;;
36353;SDS011;22383;51.114;13.666;2023-04-06T01:01:19;9.23;;;4.30;;
36353;SDS011;22383;51.114;13.666;2023-04-06T01:03:49;5.80;;;3.28;;
36353;SDS011;22383;51.114;13.666;2023-04-06T01:06:21;8.65;;;3.88;;
36353;SDS011;22383;51.114;13.666;2023-04-06T01:08:57;8.05;;;4.13;;
36353;SDS011;22383;51.114;13.666;2023-04-06T01:11:26;7.85;;;4.00;;
36353;SDS011;22383;51.114;13.666;2023-04-06T01:13:53;8.38;;;4.00;;
36353;SDS011;22383;51.114;13.666;2023-04-06T01:16:40;8.93;;;4.13;;
36353;SDS011;22383;51.114;13.666;2023-04-06T01:19:15;7.80;;;3.58;;
36353;SDS011;22383;51.114;13.666;2023-04-06T01:21:49;7.18;;;3.65;;
36353;SDS011;22383;51.114;13.666;2023-04-06T01:24:43;6.28;;;3.75;;
36353;SDS011;22383;51.114;13.666;2023-04-06T01:27:19;10.23;;;3.53;;
36353;SDS011;22383;51.114;13.666;2023-04-06T01:30:01;6.63;;;3.60;;
36353;SDS011;22383;51.114;13.666;2023-04-06T01:32:41;6.95;;;3.58;;
36353;SDS011;22383;51.114;13.666;2023-04-06T01:35:12;8.55;;;3.78;;
36353;SDS011;22383;51.114;13.666;2023-04-06T01:37:46;8.70;;;3.83;;
36353;SDS011;22383;51.114;13.666;2023-04-06T01:40:22;7.95;;;3.53;;
36353;SDS011;22383;51.114;13.666;2023-04-06T01:42:51;10.48;;;3.95;;
36353;SDS011;22383;51.114;13.666;2023-04-06T01:45:28;10.52;;;4.32;;
36353;SDS011;22383;51.114;13.666;2023-04-06T01:48:03;10.23;;;3.53;;
36353;SDS011;22383;51.114;13.666;2023-04-06T01:50:30;8.55;;;3.58;;
36353;SDS011;22383;51.114;13.666;2023-04-06T01:52:58;8.57;;;3.38;;
36353;SDS011;22383;51.114;13.666;2023-04-06T01:55:27;9.70;;;3.65;;
36353;SDS011;22383;51.114;13.666;2023-04-06T01:58:17;10.98;;;3.53;;
36353;SDS011;22383;51.114;13.666;2023-04-06T02:00:45;8.10;;;3.50;;
36353;SDS011;22383;51.114;13.666;2023-04-06T02:05:42;7.22;;;3.72;;
36353;SDS011;22383;51.114;13.666;2023-04-06T02:08:22;5.43;;;3.40;;
36353;SDS011;22383;51.114;13.666;2023-04-06T02:10:49;6.82;;;3.42;;
36353;SDS011;22383;51.114;13.666;2023-04-06T02:13:26;6.88;;;2.97;;
36353;SDS011;22383;51.114;13.666;2023-04-06T02:15:54;9.38;;;4.30;;
36353;SDS011;22383;51.114;13.666;2023-04-06T02:18:22;5.93;;;3.63;;
36353;SDS011;22383;51.114;13.666;2023-04-06T02:20:52;7.70;;;3.58;;
36353;SDS011;22383;51.114;13.666;2023-04-06T02:23:25;9.25;;;3.28;;
36353;SDS011;22383;51.114;13.666;2023-04-06T02:25:53;5.72;;;3.20;;
36353;SDS011;22383;51.114;13.666;2023-04-06T02:28:23;13.40;;;4.10;;
36353;SDS011;22383;51.114;13.666;2023-04-06T02:30:50;11.20;;;4.15;;
36353;SDS011;22383;51.114;13.666;2023-04-06T02:33:19;5.22;;;3.53;;
36353;SDS011;22383;51.114;13.666;2023-04-06T02:35:47;12.93;;;4.22;;
36353;SDS011;22383;51.114;13.666;2023-04-06T02:38:15;6.13;;;3.28;;
36353;SDS011;22383;51.114;13.666;2023-04-06T02:40:42;9.45;;;3.95;;
36353;SDS011;22383;51.114;13.666;2023-04-06T02:45:50;6.43;;;3.10;;
36353;SDS011;22383;51.114;13.666;2023-04-06T02:48:19;8.20;;;4.68;;
36353;SDS011;22383;51.114;13.666;2023-04-06T02:50:47;16.30;;;4.57;;
36353;SDS011;22383;51.114;13.666;2023-04-06T02:53:16;7.68;;;4.32;;
36353;SDS011;22383;51.114;13.666;2023-04-06T02:55:43;6.45;;;3.55;;
36353;SDS011;22383;51.114;13.666;2023-04-06T02:58:13;9.20;;;3.97;;
36353;SDS011;22383;51.114;13.666;2023-04-06T03:00:48;5.85;;;3.55;;
36353;SDS011;22383;51.114;13.666;2023-04-06T03:03:16;8.02;;;3.78;;
36353;SDS011;22383;51.114;13.666;2023-04-06T03:05:45;9.80;;;4.57;;
36353;SDS011;22383;51.114;13.666;2023-04-06T03:08:13;6.22;;;3.00;;
36353;SDS011;22383;51.114;13.666;2023-04-06T03:10:46;6.43;;;3.65;;
36353;SDS011;22383;51.114;13.666;2023-04-06T03:13:18;8.48;;;3.80;;
36353;SDS011;22383;51.114;13.666;2023-04-06T03:15:51;7.05;;;4.20;;
36353;SDS011;22383;51.114;13.666;2023-04-06T03:18:21;5.97;;;3.25;;
36353;SDS011;22383;51.114;13.666;2023-04-06T03:20:51;5.43;;;3.42;;
36353;SDS011;22383;51.114;13.666;2023-04-06T03:23:27;8.35;;;4.38;;
36353;SDS011;22383;51.114;13.666;2023-04-06T03:25:58;8.18;;;4.78;;
36353;SDS011;22383;51.114;13.666;2023-04-06T03:28:26;6.57;;;3.47;;
36353;SDS011;22383;51.114;13.666;2023-04-06T03:31:03;7.23;;;3.83;;
36353;SDS011;22383;51.114;13.666;2023-04-06T03:33:48;7.88;;;4.20;;
36353;SDS011;22383;51.114;13.666;2023-04-06T03:36:25;10.10;;;3.83;;
36353;SDS011;22383;51.114;13.666;2023-04-06T03:38:56;8.75;;;4.05;;
36353;SDS011;22383;51.114;13.666;2023-04-06T03:41:24;14.70;;;4.25;;
36353;SDS011;22383;51.114;13.666;2023-04-06T03:46:28;10.13;;;4.00;;
36353;SDS011;22383;51.114;13.666;2023-04-06T03:48:58;8.68;;;3.88;;
36353;SDS011;22383;51.114;13.666;2023-04-06T03:51:27;6.82;;;3.42;;
36353;SDS011;22383;51.114;13.666;2023-04-06T03:53:54;7.35;;;3.70;;
36353;SDS011;22383;51.114;13.666;2023-04-06T03:56:21;9.02;;;4.07;;
36353;SDS011;22383;51.114;13.666;2023-04-06T03:58:49;8.75;;;3.53;;
36353;SDS011;22383;51.114;13.666;2023-04-06T04:01:20;12.75;;;4.72;;
36353;SDS011;22383;51.114;13.666;2023-04-06T04:03:47;8.75;;;3.97;;
36353;SDS011;22383;51.114;13.666;2023-04-06T04:06:18;6.65;;;3.97;;
36353;SDS011;22383;51.114;13.666;2023-04-06T04:08:45;19.85;;;4.38;;
36353;SDS011;22383;51.114;13.666;2023-04-06T04:11:12;9.27;;;4.32;;
36353;SDS011;22383;51.114;13.666;2023-04-06T04:13:40;11.85;;;4.57;;
36353;SDS011;22383;51.114;13.666;2023-04-06T04:16:08;14.75;;;3.78;;
36353;SDS011;22383;51.114;13.666;2023-04-06T04:18:35;10.82;;;5.13;;
36353;SDS011;22383;51.114;13.666;2023-04-06T04:21:05;8.80;;;4.82;;
36353;SDS011;22383;51.114;13.666;2023-04-06T04:23:33;10.77;;;4.32;;
36353;SDS011;22383;51.114;13.666;2023-04-06T04:26:03;8.85;;;3.78;;
36353;SDS011;22383;51.114;13.666;2023-04-06T04:28:30;13.45;;;4.57;;
36353;SDS011;22383;51.114;13.666;2023-04-06T04:31:00;6.93;;;3.88;;
36353;SDS011;22383;51.114;13.666;2023-04-06T04:33:31;9.43;;;4.28;;
36353;SDS011;22383;51.114;13.666;2023-04-06T04:36:04;12.48;;;4.90;;
36353;SDS011;22383;51.114;13.666;2023-04-06T04:38:37;9.85;;;4.47;;
36353;SDS011;22383;51.114;13.666;2023-04-06T04:41:08;10.55;;;4.82;;
36353;SDS011;22383;51.114;13.666;2023-04-06T04:43:37;6.18;;;3.45;;
36353;SDS011;22383;51.114;13.666;2023-04-06T04:46:06;11.60;;;4.88;;
36353;SDS011;22383;51.114;13.666;2023-04-06T04:48:43;10.45;;;4.15;;
36353;SDS011;22383;51.114;13.666;2023-04-06T04:51:12;8.50;;;4.40;;
36353;SDS011;22383;51.114;13.666;2023-04-06T04:53:59;8.23;;;4.35;;
36353;SDS011;22383;51.114;13.666;2023-04-06T04:56:29;10.55;;;4.80;;
36353;SDS011;22383;51.114;13.666;2023-04-06T04:59:07;8.00;;;4.32;;
36353;SDS011;22383;51.114;13.666;2023-04-06T05:01:38;10.48;;;4.20;;
36353;SDS011;22383;51.114;13.666;2023-04-06T05:04:21;9.98;;;4.28;;
36353;SDS011;22383;51.114;13.666;2023-04-06T05:07:07;12.63;;;4.53;;
36353;SDS011;22383;51.114;13.666;2023-04-06T05:09:40;9.38;;;4.15;;
36353;SDS011;22383;51.114;13.666;2023-04-06T05:12:08;11.07;;;4.15;;
36353;SDS011;22383;51.114;13.666;2023-04-06T05:14:44;8.25;;;5.20;;
36353;SDS011;22383;51.114;13.666;2023-04-06T05:17:15;9.00;;;4.88;;
36353;SDS011;22383;51.114;13.666;2023-04-06T05:19:42;7.10;;;4.07;;
36353;SDS011;22383;51.114;13.666;2023-04-06T05:22:14;7.43;;;4.63;;
36353;SDS011;22383;51.114;13.666;2023-04-06T05:24:50;14.05;;;4.50;;
36353;SDS011;22383;51.114;13.666;2023-04-06T05:27:24;5.72;;;3.70;;
36353;SDS011;22383;51.114;13.666;2023-04-06T05:29:56;15.25;;;4.40;;
36353;SDS011;22383;51.114;13.666;2023-04-06T05:32:27;9.45;;;3.80;;
36353;SDS011;22383;51.114;13.666;2023-04-06T05:34:55;8.05;;;3.83;;
36353;SDS011;22383;51.114;13.666;2023-04-06T05:37:25;8.88;;;4.57;;
36353;SDS011;22383;51.114;13.666;2023-04-06T05:39:52;18.20;;;4.75;;
36353;SDS011;22383;51.114;13.666;2023-04-06T05:42:21;6.20;;;3.50;;
36353;SDS011;22383;51.114;13.666;2023-04-06T05:44:53;11.30;;;3.55;;
36353;SDS011;22383;51.114;13.666;2023-04-06T05:47:20;7.32;;;3.60;;
36353;SDS011;22383;51.114;13.666;2023-04-06T05:49:54;8.98;;;4.35;;
36353;SDS011;22383;51.114;13.666;2023-04-06T05:52:31;8.90;;;4.13;;
36353;SDS011;22383;51.114;13.666;2023-04-06T05:57:29;5.88;;;3.25;;
36353;SDS011;22383;51.114;13.666;2023-04-06T06:00:01;8.45;;;3.95;;
36353;SDS011;22383;51.114;13.666;2023-04-06T06:02:44;8.75;;;3.67;;
36353;SDS011;22383;51.114;13.666;2023-04-06T06:05:18;9.90;;;4.10;;
36353;SDS011;22383;51.114;13.666;2023-04-06T06:07:47;7.15;;;3.63;;
36353;SDS011;22383;51.114;13.666;2023-04-06T06:10:15;11.90;;;4.22;;
36353;SDS011;22383;51.114;13.666;2023-04-06T06:12:44;7.00;;;3.92;;
36353;SDS011;22383;51.114;13.666;2023-04-06T06:15:12;6.10;;;3.42;;
36353;SDS011;22383;51.114;13.666;2023-04-06T06:17:44;10.35;;;4.30;;
36353;SDS011;22383;51.114;13.666;2023-04-06T06:20:11;6.45;;;3.65;;
36353;SDS011;22383;51.114;13.666;2023-04-06T06:22:39;13.30;;;4.38;;
36353;SDS011;22383;51.114;13.666;2023-04-06T06:25:10;8.00;;;4.32;;
36353;SDS011;22383;51.114;13.666;2023-04-06T06:27:38;6.60;;;3.40;;
36353;SDS011;22383;51.114;13.666;2023-04-06T06:30:05;7.53;;;3.85;;
36353;SDS011;22383;51.114;13.666;2023-04-06T06:32:37;12.88;;;3.95;;
36353;SDS011;22383;51.114;13.666;2023-04-06T06:35:04;15.23;;;4.57;;
36353;SDS011;22383;51.114;13.666;2023-04-06T06:37:32;7.90;;;4.35;;
36353;SDS011;22383;51.114;13.666;2023-04-06T06:40:01;7.20;;;4.28;;
36353;SDS011;22383;51.114;13.666;2023-04-06T06:42:30;9.70;;;4.03;;
36353;SDS011;22383;51.114;13.666;2023-04-06T06:45:21;9.07;;;3.80;;
36353;SDS011;22383;51.114;13.666;2023-04-06T06:47:48;10.18;;;4.05;;
36353;SDS011;22383;51.114;13.666;2023-04-06T06:50:18;10.82;;;5.55;;
36353;SDS011;22383;51.114;13.666;2023-04-06T06:52:48;8.48;;;4.00;;
36353;SDS011;22383;51.114;13.666;2023-04-06T06:55:15;11.57;;;4.70;;
36353;SDS011;22383;51.114;13.666;2023-04-06T06:57:46;9.27;;;4.70;;
36353;SDS011;22383;51.114;13.666;2023-04-06T07:02:42;7.30;;;4.20;;
36353;SDS011;22383;51.114;13.666;2023-04-06T07:05:10;10.32;;;5.10;;
36353;SDS011;22383;51.114;13.666;2023-04-06T07:07:55;11.75;;;5.20;;
36353;SDS011;22383;51.114;13.666;2023-04-06T07:10:24;13.85;;;4.88;;
36353;SDS011;22383;51.114;13.666;2023-04-06T07:12:56;9.73;;;4.78;;
36353;SDS011;22383;51.114;13.666;2023-04-06T07:15:24;10.57;;;5.18;;
36353;SDS011;22383;51.114;13.666;2023-04-06T07:17:51;10.13;;;4.95;;
36353;SDS011;22383;51.114;13.666;2023-04-06T07:22:51;9.23;;;4.63;;
36353;SDS011;22383;51.114;13.666;2023-04-06T07:25:19;8.05;;;4.47;;
36353;SDS011;22383;51.114;13.666;2023-04-06T07:27:48;10.68;;;4.18;;
36353;SDS011;22383;51.114;13.666;2023-04-06T07:30:19;10.60;;;4.90;;
36353;SDS011;22383;51.114;13.666;2023-04-06T07:32:47;8.02;;;4.93;;
36353;SDS011;22383;51.114;13.666;2023-04-06T07:35:15;7.07;;;3.90;;
36353;SDS011;22383;51.114;13.666;2023-04-06T07:37:43;11.13;;;5.13;;
36353;SDS011;22383;51.114;13.666;2023-04-06T07:40:12;7.07;;;4.72;;
36353;SDS011;22383;51.114;13.666;2023-04-06T07:42:41;13.25;;;4.75;;
36353;SDS011;22383;51.114;13.666;2023-04-06T07:45:09;10.85;;;4.35;;
36353;SDS011;22383;51.114;13.666;2023-04-06T07:47:40;14.45;;;5.65;;
36353;SDS011;22383;51.114;13.666;2023-04-06T07:50:07;8.63;;;4.32;;
36353;SDS011;22383;51.114;13.666;2023-04-06T07:52:36;9.88;;;3.90;;
36353;SDS011;22383;51.114;13.666;2023-04-06T07:55:09;12.05;;;4.50;;
36353;SDS011;22383;51.114;13.666;2023-04-06T07:57:39;8.23;;;4.15;;
36353;SDS011;22383;51.114;13.666;2023-04-06T08:00:07;9.88;;;4.68;;
36353;SDS011;22383;51.114;13.666;2023-04-06T08:02:38;12.27;;;4.10;;
36353;SDS011;22383;51.114;13.666;2023-04-06T08:07:34;8.82;;;4.13;;
36353;SDS011;22383;51.114;13.666;2023-04-06T08:10:04;8.23;;;4.22;;
36353;SDS011;22383;51.114;13.666;2023-04-06T08:12:32;10.60;;;3.40;;
36353;SDS011;22383;51.114;13.666;2023-04-06T08:15:02;12.50;;;4.82;;
36353;SDS011;22383;51.114;13.666;2023-04-06T08:17:32;8.10;;;3.97;;
36353;SDS011;22383;51.114;13.666;2023-04-06T08:20:01;9.27;;;3.83;;
36353;SDS011;22383;51.114;13.666;2023-04-06T08:22:33;8.35;;;3.28;;
36353;SDS011;22383;51.114;13.666;2023-04-06T08:25:03;6.70;;;3.58;;
36353;SDS011;22383;51.114;13.666;2023-04-06T08:27:39;5.85;;;3.50;;
36353;SDS011;22383;51.114;13.666;2023-04-06T08:30:09;5.95;;;3.15;;
36353;SDS011;22383;51.114;13.666;2023-04-06T08:32:43;6.95;;;3.80;;
36353;SDS011;22383;51.114;13.666;2023-04-06T08:35:13;8.50;;;3.25;;
36353;SDS011;22383;51.114;13.666;2023-04-06T08:37:40;9.35;;;3.90;;
36353;SDS011;22383;51.114;13.666;2023-04-06T08:40:09;6.22;;;3.15;;
36353;SDS011;22383;51.114;13.666;2023-04-06T08:42:44;10.95;;;4.03;;
36353;SDS011;22383;51.114;13.666;2023-04-06T08:45:17;6.30;;;3.40;;
36353;SDS011;22383;51.114;13.666;2023-04-06T08:47:52;9.13;;;3.63;;
36353;SDS011;22383;51.114;13.666;2023-04-06T08:50:29;5.15;;;2.92;;
36353;SDS011;22383;51.114;13.666;2023-04-06T08:52:57;6.47;;;3.53;;
36353;SDS011;22383;51.114;13.666;2023-04-06T08:55:26;5.93;;;3.30;;
36353;SDS011;22383;51.114;13.666;2023-04-06T08:57:54;6.10;;;2.97;;
36353;SDS011;22383;51.114;13.666;2023-04-06T09:00:22;4.70;;;2.88;;
36353;SDS011;22383;51.114;13.666;2023-04-06T09:02:52;8.15;;;3.75;;
36353;SDS011;22383;51.114;13.666;2023-04-06T09:05:25;4.15;;;2.70;;
36353;SDS011;22383;51.114;13.666;2023-04-06T09:10:19;5.78;;;3.22;;
36353;SDS011;22383;51.114;13.666;2023-04-06T09:13:02;7.05;;;2.90;;
36353;SDS011;22383;51.114;13.666;2023-04-06T09:15:32;6.93;;;3.55;;
36353;SDS011;22383;51.114;13.666;2023-04-06T09:18:05;5.68;;;3.00;;
36353;SDS011;22383;51.114;13.666;2023-04-06T09:20:36;5.82;;;3.42;;
36353;SDS011;22383;51.114;13.666;2023-04-06T09:23:16;6.57;;;3.90;;
36353;SDS011;22383;51.114;13.666;2023-04-06T09:25:50;6.70;;;2.92;;
36353;SDS011;22383;51.114;13.666;2023-04-06T09:28:20;5.13;;;3.00;;
36353;SDS011;22383;51.114;13.666;2023-04-06T09:30:48;4.78;;;2.72;;
36353;SDS011;22383;51.114;13.666;2023-04-06T09:33:22;4.75;;;2.55;;
36353;SDS011;22383;51.114;13.666;2023-04-06T09:35:52;4.20;;;2.38;;
36353;SDS011;22383;51.114;13.666;2023-04-06T09:38:24;4.80;;;2.65;;
36353;SDS011;22383;51.114;13.666;2023-04-06T09:40:51;9.60;;;3.30;;
36353;SDS011;22383;51.114;13.666;2023-04-06T09:43:27;3.63;;;2.15;;
36353;SDS011;22383;51.114;13.666;2023-04-06T09:45:56;6.95;;;2.70;;
36353;SDS011;22383;51.114;13.666;2023-04-06T09:48:25;5.55;;;2.38;;
36353;SDS011;22383;51.114;13.666;2023-04-06T09:51:01;3.38;;;2.47;;
36353;SDS011;22383;51.114;13.666;2023-04-06T09:53:36;3.75;;;2.50;;
36353;SDS011;22383;51.114;13.666;2023-04-06T09:56:07;11.80;;;2.55;;
36353;SDS011;22383;51.114;13.666;2023-04-06T09:58:46;4.57;;;2.63;;
36353;SDS011;22383;51.114;13.666;2023-04-06T10:01:21;5.13;;;2.83;;
36353;SDS011;22383;51.114;13.666;2023-04-06T10:06:37;8.20;;;3.15;;
36353;SDS011;22383;51.114;13.666;2023-04-06T10:09:06;4.65;;;2.75;;
36353;SDS011;22383;51.114;13.666;2023-04-06T10:11:34;5.75;;;2.67;;
36353;SDS011;22383;51.114;13.666;2023-04-06T10:14:05;7.32;;;3.70;;
36353;SDS011;22383;51.114;13.666;2023-04-06T10:16:35;4.30;;;2.75;;
36353;SDS011;22383;51.114;13.666;2023-04-06T10:19:21;5.63;;;2.72;;
36353;SDS011;22383;51.114;13.666;2023-04-06T10:21:58;5.30;;;3.20;;
36353;SDS011;22383;51.114;13.666;2023-04-06T10:24:32;7.72;;;2.53;;
36353;SDS011;22383;51.114;13.666;2023-04-06T10:27:01;4.82;;;1.98;;
36353;SDS011;22383;51.114;13.666;2023-04-06T10:29:40;5.05;;;2.47;;
36353;SDS011;22383;51.114;13.666;2023-04-06T10:32:17;4.97;;;2.70;;
36353;SDS011;22383;51.114;13.666;2023-04-06T10:34:44;5.20;;;2.63;;
36353;SDS011;22383;51.114;13.666;2023-04-06T10:37:17;4.28;;;2.60;;
36353;SDS011;22383;51.114;13.666;2023-04-06T10:39:52;7.07;;;2.60;;
36353;SDS011;22383;51.114;13.666;2023-04-06T10:42:39;4.55;;;2.47;;
36353;SDS011;22383;51.114;13.666;2023-04-06T10:45:20;4.07;;;2.72;;
36353;SDS011;22383;51.114;13.666;2023-04-06T10:47:52;4.05;;;2.10;;
36353;SDS011;22383;51.114;13.666;2023-04-06T10:50:26;3.92;;;2.17;;
36353;SDS011;22383;51.114;13.666;2023-04-06T10:52:59;5.43;;;2.35;;
36353;SDS011;22383;51.114;13.666;2023-04-06T10:55:28;3.75;;;2.20;;
36353;SDS011;22383;51.114;13.666;2023-04-06T10:57:56;6.28;;;2.95;;
36353;SDS011;22383;51.114;13.666;2023-04-06T11:00:23;5.25;;;2.60;;
36353;SDS011;22383;51.114;13.666;2023-04-06T11:03:00;7.50;;;3.35;;
36353;SDS011;22383;51.114;13.666;2023-04-06T11:05:31;5.22;;;2.60;;
36353;SDS011;22383;51.114;13.666;2023-04-06T11:08:04;4.50;;;3.15;;
36353;SDS011;22383;51.114;13.666;2023-04-06T11:10:39;5.20;;;2.53;;
36353;SDS011;22383;51.114;13.666;2023-04-06T11:13:12;11.38;;;2.60;;
36353;SDS011;22383;51.114;13.666;2023-04-06T11:15:42;4.40;;;2.60;;
36353;SDS011;22383;51.114;13.666;2023-04-06T11:18:10;7.88;;;3.22;;
36353;SDS011;22383;51.114;13.666;2023-04-06T11:20:38;4.35;;;2.70;;
36353;SDS011;22383;51.114;13.666;2023-04-06T11:23:05;5.70;;;2.50;;
36353;SDS011;22383;51.114;13.666;2023-04-06T11:25:34;3.90;;;2.47;;
36353;SDS011;22383;51.114;13.666;2023-04-06T11:30:29;6.47;;;3.30;;
36353;SDS011;22383;51.114;13.666;2023-04-06T11:33:00;5.45;;;2.83;;
36353;SDS011;22383;51.114;13.666;2023-04-06T11:35:30;4.57;;;2.92;;
36353;SDS011;22383;51.114;13.666;2023-04-06T11:38:02;4.47;;;2.63;;
36353;SDS011;22383;51.114;13.666;2023-04-06T11:40:32;3.40;;;2.30;;
36353;SDS011;22383;51.114;13.666;2023-04-06T11:43:00;3.95;;;2.60;;
36353;SDS011;22383;51.114;13.666;2023-04-06T11:45:27;4.28;;;2.47;;
36353;SDS011;22383;51.114;13.666;2023-04-06T11:47:58;5.07;;;2.25;;
36353;SDS011;22383;51.114;13.666;2023-04-06T11:50:32;5.50;;;2.70;;
36353;SDS011;22383;51.114;13.666;2023-04-06T11:53:02;6.35;;;2.38;;
36353;SDS011;22383;51.114;13.666;2023-04-06T11:55:36;4.07;;;2.63;;
36353;SDS011;22383;51.114;13.666;2023-04-06T11:58:05;6.82;;;3.08;;
36353;SDS011;22383;51.114;13.666;2023-04-06T12:00:33;6.03;;;3.00;;
36353;SDS011;22383;51.114;13.666;2023-04-06T12:05:28;8.23;;;2.88;;
36353;SDS011;22383;51.114;13.666;2023-04-06T12:07:55;4.88;;;2.67;;
36353;SDS011;22383;51.114;13.666;2023-04-06T12:10:28;7.80;;;3.10;;
36353;SDS011;22383;51.114;13.666;2023-04-06T12:13:01;4.30;;;2.85;;
36353;SDS011;22383;51.114;13.666;2023-04-06T12:15:28;5.15;;;3.10;;
36353;SDS011;22383;51.114;13.666;2023-04-06T12:17:56;5.35;;;2.67;;
36353;SDS011;22383;51.114;13.666;2023-04-06T12:20:29;5.93;;;2.97;;
36353;SDS011;22383;51.114;13.666;2023-04-06T12:22:56;4.82;;;2.78;;
36353;SDS011;22383;51.114;13.666;2023-04-06T12:25:23;4.40;;;2.80;;
36353;SDS011;22383;51.114;13.666;2023-04-06T12:27:50;4.32;;;2.70;;
36353;SDS011;22383;51.114;13.666;2023-04-06T12:30:20;6.05;;;2.70;;
36353;SDS011;22383;51.114;13.666;2023-04-06T12:32:50;5.88;;;2.65;;
36353;SDS011;22383;51.114;13.666;2023-04-06T12:35:20;5.85;;;2.67;;
36353;SDS011;22383;51.114;13.666;2023-04-06T12:37:47;5.85;;;3.20;;
36353;SDS011;22383;51.114;13.666;2023-04-06T12:40:15;6.43;;;3.22;;
36353;SDS011;22383;51.114;13.666;2023-04-06T12:42:45;4.07;;;2.47;;
36353;SDS011;22383;51.114;13.666;2023-04-06T12:47:40;4.05;;;2.80;;
36353;SDS011;22383;51.114;13.666;2023-04-06T12:50:08;4.18;;;2.83;;
36353;SDS011;22383;51.114;13.666;2023-04-06T12:52:35;7.03;;;3.40;;
36353;SDS011;22383;51.114;13.666;2023-04-06T12:55:03;6.35;;;3.15;;
36353;SDS011;22383;51.114;13.666;2023-04-06T12:57:33;4.55;;;2.80;;
36353;SDS011;22383;51.114;13.666;2023-04-06T13:00:00;5.28;;;3.70;;
36353;SDS011;22383;51.114;13.666;2023-04-06T13:02:29;6.65;;;3.60;;
36353;SDS011;22383;51.114;13.666;2023-04-06T13:04:57;5.57;;;3.40;;
36353;SDS011;22383;51.114;13.666;2023-04-06T13:07:25;5.95;;;3.22;;
36353;SDS011;22383;51.114;13.666;2023-04-06T13:09:52;4.45;;;3.08;;
36353;SDS011;22383;51.114;13.666;2023-04-06T13:12:20;4.80;;;3.33;;
36353;SDS011;22383;51.114;13.666;2023-04-06T13:14:48;5.40;;;3.17;;
36353;SDS011;22383;51.114;13.666;2023-04-06T13:17:20;7.75;;;3.97;;
36353;SDS011;22383;51.114;13.666;2023-04-06T13:19:48;5.97;;;3.80;;
36353;SDS011;22383;51.114;13.666;2023-04-06T13:22:15;6.78;;;3.58;;
36353;SDS011;22383;51.114;13.666;2023-04-06T13:24:42;6.45;;;2.80;;
36353;SDS011;22383;51.114;13.666;2023-04-06T13:27:10;6.82;;;3.00;;
36353;SDS011;22383;51.114;13.666;2023-04-06T13:29:38;3.42;;;2.50;;
36353;SDS011;22383;51.114;13.666;2023-04-06T13:32:05;4.78;;;3.28;;
36353;SDS011;22383;51.114;13.666;2023-04-06T13:34:32;5.18;;;3.20;;
36353;SDS011;22383;51.114;13.666;2023-04-06T13:36:59;4.57;;;3.33;;
36353;SDS011;22383;51.114;13.666;2023-04-06T13:39:27;5.50;;;3.83;;
36353;SDS011;22383;51.114;13.666;2023-04-06T13:41:54;7.25;;;3.28;;
36353;SDS011;22383;51.114;13.666;2023-04-06T13:44:22;5.40;;;3.15;;
36353;SDS011;22383;51.114;13.666;2023-04-06T13:46:50;4.75;;;3.20;;
36353;SDS011;22383;51.114;13.666;2023-04-06T13:49:17;7.05;;;4.05;;
36353;SDS011;22383;51.114;13.666;2023-04-06T13:51:44;8.82;;;3.60;;
36353;SDS011;22383;51.114;13.666;2023-04-06T13:54:11;4.13;;;2.58;;
36353;SDS011;22383;51.114;13.666;2023-04-06T13:56:41;5.90;;;3.00;;
36353;SDS011;22383;51.114;13.666;2023-04-06T13:59:08;5.28;;;3.40;;
36353;SDS011;22383;51.114;13.666;2023-04-06T14:01:35;4.97;;;3.25;;
36353;SDS011;22383;51.114;13.666;2023-04-06T14:04:04;4.38;;;3.22;;
36353;SDS011;22383;51.114;13.666;2023-04-06T14:06:31;5.95;;;3.13;;
36353;SDS011;22383;51.114;13.666;2023-04-06T14:08:58;9.23;;;3.75;;
36353;SDS011;22383;51.114;13.666;2023-04-06T14:11:26;6.47;;;3.08;;
36353;SDS011;22383;51.114;13.666;2023-04-06T14:13:53;5.65;;;3.10;;
36353;SDS011;22383;51.114;13.666;2023-04-06T14:16:24;4.57;;;2.80;;
36353;SDS011;22383;51.114;13.666;2023-04-06T14:18:51;9.57;;;3.00;;
36353;SDS011;22383;51.114;13.666;2023-04-06T14:21:19;5.90;;;2.97;;
36353;SDS011;22383;51.114;13.666;2023-04-06T14:26:13;8.25;;;3.30;;
36353;SDS011;22383;51.114;13.666;2023-04-06T14:28:41;3.78;;;2.70;;
36353;SDS011;22383;51.114;13.666;2023-04-06T14:31:13;5.47;;;2.92;;
36353;SDS011;22383;51.114;13.666;2023-04-06T14:33:49;5.72;;;3.35;;
36353;SDS011;22383;51.114;13.666;2023-04-06T14:36:17;3.80;;;3.30;;
36353;SDS011;22383;51.114;13.666;2023-04-06T14:38:44;5.95;;;3.53;;
36353;SDS011;22383;51.114;13.666;2023-04-06T14:41:17;6.95;;;4.10;;
36353;SDS011;22383;51.114;13.666;2023-04-06T14:43:46;5.70;;;2.95;;
36353;SDS011;22383;51.114;13.666;2023-04-06T14:46:14;5.20;;;3.03;;
36353;SDS011;22383;51.114;13.666;2023-04-06T14:48:47;3.70;;;2.70;;
36353;SDS011;22383;51.114;13.666;2023-04-06T14:51:15;5.38;;;3.03;;
36353;SDS011;22383;51.114;13.666;2023-04-06T14:56:18;3.67;;;2.40;;
36353;SDS011;22383;51.114;13.666;2023-04-06T14:58:53;5.93;;;2.72;;
36353;SDS011;22383;51.114;13.666;2023-04-06T15:01:20;2.83;;;2.40;;
36353;SDS011;22383;51.114;13.666;2023-04-06T15:03:52;4.47;;;2.47;;
36353;SDS011;22383;51.114;13.666;2023-04-06T15:06:19;6.47;;;2.90;;
36353;SDS011;22383;51.114;13.666;2023-04-06T15:08:48;6.18;;;2.90;;
36353;SDS011;22383;51.114;13.666;2023-04-06T15:11:18;4.97;;;3.88;;
36353;SDS011;22383;51.114;13.666;2023-04-06T15:13:45;5.38;;;2.97;;
36353;SDS011;22383;51.114;13.666;2023-04-06T15:16:13;5.45;;;3.00;;
36353;SDS011;22383;51.114;13.666;2023-04-06T15:18:41;4.63;;;2.30;;
36353;SDS011;22383;51.114;13.666;2023-04-06T15:21:10;6.30;;;3.17;;
36353;SDS011;22383;51.114;13.666;2023-04-06T15:23:37;6.18;;;2.90;;
36353;SDS011;22383;51.114;13.666;2023-04-06T15:26:05;4.03;;;2.92;;
36353;SDS011;22383;51.114;13.666;2023-04-06T15:28:32;3.75;;;2.63;;